createdAt,value
2022-10-09T00:01:31.236Z,100.00
2022-10-09T00:04:00.362Z,100.00
2022-10-09T00:06:34.754Z,100.00
2022-10-09T00:09:03.986Z,100.00
2022-10-09T00:11:34.559Z,100.00
2022-10-09T00:14:03.658Z,100.00
2022-10-09T00:16:30.869Z,100.00
2022-10-09T00:18:58.900Z,100.00
2022-10-09T00:21:30.815Z,100.00
2022-10-09T00:24:03.847Z,100.00
2022-10-09T00:26:32.479Z,100.00
2022-10-09T00:28:59.576Z,100.00
2022-10-09T00:31:26.830Z,100.00
2022-10-09T00:33:53.838Z,100.00
2022-10-09T00:36:26.125Z,100.00
2022-10-09T00:38:55.396Z,100.00
2022-10-09T00:41:33.968Z,100.00
2022-10-09T00:44:53.035Z,100.00
2022-10-09T00:47:47.981Z,100.00
2022-10-09T00:50:38.626Z,100.00
2022-10-09T00:53:05.858Z,100.00
2022-10-09T00:55:37.062Z,100.00
2022-10-09T00:58:05.894Z,100.00
2022-10-09T01:00:33.409Z,100.00
2022-10-09T01:03:00.580Z,100.00
2022-10-09T01:06:17.449Z,100.00
2022-10-09T01:09:10.561Z,100.00
2022-10-09T01:12:04.670Z,100.00
2022-10-09T01:15:07.874Z,100.00
2022-10-09T01:18:12.151Z,100.00
2022-10-09T01:21:06.335Z,100.00
2022-10-09T01:24:21.917Z,100.00
2022-10-09T01:27:19.985Z,100.00
2022-10-09T01:30:01.950Z,100.00
2022-10-09T01:32:39.283Z,100.00
2022-10-09T01:35:11.799Z,100.00
2022-10-09T01:37:46.416Z,100.00
2022-10-09T01:40:18.172Z,100.00
2022-10-09T01:42:47.382Z,100.00
2022-10-09T01:45:16.507Z,100.00
2022-10-09T01:47:43.916Z,100.00
2022-10-09T01:50:32.846Z,100.00
2022-10-09T01:53:10.326Z,100.00
2022-10-09T01:55:51.317Z,100.00
2022-10-09T01:58:41.446Z,100.00
2022-10-09T02:01:31.712Z,100.00
2022-10-09T02:04:07.877Z,100.00
2022-10-09T02:06:40.315Z,100.00
2022-10-09T02:09:16.729Z,100.00
2022-10-09T02:11:55.558Z,100.00
2022-10-09T02:14:22.832Z,100.00
2022-10-09T02:17:08.901Z,100.00
2022-10-09T02:19:52.329Z,100.00
2022-10-09T02:22:33.470Z,100.00
2022-10-09T02:25:07.129Z,100.00
2022-10-09T02:27:35.851Z,100.00
2022-10-09T02:30:06.009Z,100.00
2022-10-09T02:32:33.095Z,100.00
2022-10-09T02:35:00.092Z,100.00
2022-10-09T02:37:27.119Z,100.00
2022-10-09T02:39:54.067Z,100.00
2022-10-09T02:42:22.485Z,100.00
2022-10-09T02:44:49.439Z,100.00
2022-10-09T02:47:16.340Z,100.00
2022-10-09T02:49:43.274Z,100.00
2022-10-09T02:52:10.589Z,100.00
2022-10-09T02:54:37.572Z,100.00
2022-10-09T02:57:04.542Z,100.00
2022-10-09T02:59:32.200Z,100.00
2022-10-09T03:01:59.208Z,100.00
2022-10-09T03:04:26.323Z,100.00
2022-10-09T03:06:53.242Z,100.00
2022-10-09T03:09:20.168Z,100.00
2022-10-09T03:11:47.249Z,100.00
2022-10-09T03:14:14.153Z,100.00
2022-10-09T03:16:41.107Z,100.00
2022-10-09T03:19:07.997Z,100.00
2022-10-09T03:21:35.236Z,100.00
2022-10-09T03:24:02.185Z,100.00
2022-10-09T03:26:29.442Z,100.00
2022-10-09T03:28:56.828Z,100.00
2022-10-09T03:34:14.707Z,100.00
2022-10-09T03:36:42.413Z,100.00
2022-10-09T03:39:09.610Z,100.00
2022-10-09T03:41:36.537Z,100.00
2022-10-09T03:44:03.563Z,100.00
2022-10-09T03:46:30.627Z,100.00
2022-10-09T03:48:57.553Z,100.00
2022-10-09T03:51:24.491Z,100.00
2022-10-09T03:53:51.441Z,100.00
2022-10-09T03:56:18.350Z,100.00
2022-10-09T03:58:45.281Z,100.00
2022-10-09T04:01:12.282Z,100.00
2022-10-09T04:03:39.245Z,100.00
2022-10-09T04:06:06.597Z,100.00
2022-10-09T04:08:33.542Z,100.00
2022-10-09T04:11:01.806Z,100.00
2022-10-09T04:13:28.802Z,100.00
2022-10-09T04:15:57.181Z,100.00
2022-10-09T04:18:25.472Z,100.00
2022-10-09T04:20:56.687Z,100.00
2022-10-09T04:23:27.914Z,100.00
2022-10-09T04:25:59.516Z,100.00
2022-10-09T04:28:30.929Z,100.00
2022-10-09T04:30:59.452Z,100.00
2022-10-09T04:33:27.747Z,100.00
2022-10-09T04:35:56.740Z,100.00
2022-10-09T04:38:25.154Z,100.00
2022-10-09T04:41:05.920Z,100.00
2022-10-09T04:43:35.249Z,100.00
2022-10-09T04:46:10.817Z,100.00
2022-10-09T04:48:45.098Z,100.00
2022-10-09T04:51:14.865Z,100.00
2022-10-09T04:53:42.401Z,100.00
2022-10-09T04:56:17.870Z,100.00
2022-10-09T04:58:47.454Z,100.00
2022-10-09T05:01:23.337Z,100.00
2022-10-09T05:03:52.484Z,100.00
2022-10-09T05:06:22.566Z,100.00
2022-10-09T05:08:51.328Z,100.00
2022-10-09T05:11:24.304Z,100.00
2022-10-09T05:13:56.221Z,100.00
2022-10-09T05:16:29.116Z,100.00
2022-10-09T05:18:59.704Z,100.00
2022-10-09T05:21:29.060Z,100.00
2022-10-09T05:23:56.924Z,100.00
2022-10-09T05:26:26.591Z,100.00
2022-10-09T05:28:54.073Z,100.00
2022-10-09T05:31:29.533Z,100.00
2022-10-09T05:34:00.303Z,100.00
2022-10-09T05:36:28.078Z,100.00
2022-10-09T05:38:56.750Z,100.00
2022-10-09T05:41:23.988Z,100.00
2022-10-09T05:43:51.482Z,100.00
2022-10-09T05:46:25.579Z,100.00
2022-10-09T05:49:06.211Z,100.00
2022-10-09T05:51:38.634Z,100.00
2022-10-09T05:54:07.055Z,100.00
2022-10-09T05:56:38.844Z,100.00
2022-10-09T05:59:14.942Z,100.00
2022-10-09T06:01:46.840Z,100.00
2022-10-09T06:04:19.796Z,100.00
2022-10-09T06:06:49.469Z,100.00
2022-10-09T06:09:23.289Z,100.00
2022-10-09T06:11:52.889Z,100.00
2022-10-09T06:14:22.271Z,100.00
2022-10-09T06:16:50.854Z,100.00
2022-10-09T06:19:20.498Z,100.00
2022-10-09T06:21:49.196Z,100.00
2022-10-09T06:24:29.089Z,100.00
2022-10-09T06:26:58.439Z,100.00
2022-10-09T06:29:25.722Z,100.00
2022-10-09T06:31:53.140Z,100.00
2022-10-09T06:34:20.152Z,100.00
2022-10-09T06:36:47.182Z,100.00
2022-10-09T06:39:14.142Z,100.00
2022-10-09T06:41:41.456Z,100.00
2022-10-09T06:44:16.523Z,100.00
2022-10-09T06:46:49.293Z,100.00
2022-10-09T06:49:16.342Z,100.00
2022-10-09T06:51:43.299Z,100.00
2022-10-09T06:54:16.048Z,100.00
2022-10-09T06:56:43.260Z,100.00
2022-10-09T06:59:12.230Z,100.00
2022-10-09T07:01:39.484Z,100.00
2022-10-09T07:04:14.557Z,100.00
2022-10-09T07:06:47.689Z,100.00
2022-10-09T07:09:16.460Z,100.00
2022-10-09T07:11:49.395Z,100.00
2022-10-09T07:14:17.724Z,100.00
2022-10-09T07:16:49.109Z,100.00
2022-10-09T07:19:18.731Z,100.00
2022-10-09T07:21:49.220Z,100.00
2022-10-09T07:24:20.509Z,100.00
2022-10-09T07:26:48.710Z,100.00
2022-10-09T07:29:19.386Z,100.00
2022-10-09T07:31:47.017Z,100.00
2022-10-09T07:34:14.372Z,100.00
2022-10-09T07:36:41.292Z,100.00
2022-10-09T07:39:08.510Z,100.00
2022-10-09T07:41:35.677Z,100.00
2022-10-09T07:44:03.134Z,100.00
2022-10-09T07:46:33.753Z,100.00
2022-10-09T07:49:03.140Z,100.00
2022-10-09T07:51:32.134Z,100.00
2022-10-09T07:54:01.968Z,100.00
2022-10-09T07:56:34.753Z,100.00
2022-10-09T07:59:07.655Z,100.00
2022-10-09T08:01:36.680Z,100.00
2022-10-09T08:04:05.046Z,100.00
2022-10-09T08:06:33.623Z,100.00
2022-10-09T08:09:04.930Z,100.00
2022-10-09T08:11:32.694Z,100.00
2022-10-09T08:13:59.778Z,100.00
2022-10-09T08:16:28.528Z,100.00
2022-10-09T08:18:59.504Z,100.00
2022-10-09T08:21:28.613Z,100.00
2022-10-09T08:23:59.619Z,100.00
2022-10-09T08:26:30.753Z,100.00
2022-10-09T08:29:05.076Z,100.00
2022-10-09T08:31:32.880Z,100.00
2022-10-09T08:34:03.704Z,100.00
2022-10-09T08:36:32.152Z,100.00
2022-10-09T08:39:00.038Z,100.00
2022-10-09T08:41:54.220Z,100.00
2022-10-09T08:44:29.394Z,100.00
2022-10-09T08:47:37.961Z,100.00
2022-10-09T08:50:20.210Z,100.00
2022-10-09T08:53:14.559Z,100.00
2022-10-09T08:55:56.022Z,100.00
2022-10-09T08:58:34.667Z,100.00
2022-10-09T09:01:24.995Z,100.00
2022-10-09T09:04:33.672Z,100.00
2022-10-09T09:07:50.785Z,100.00
2022-10-09T09:10:50.271Z,100.00
2022-10-09T09:13:57.428Z,100.00
2022-10-09T09:17:08.791Z,100.00
2022-10-09T09:20:47.791Z,100.00
2022-10-09T09:23:17.133Z,100.00
2022-10-09T09:25:46.267Z,100.00
2022-10-09T09:28:35.286Z,100.00
2022-10-09T09:31:28.077Z,100.00
2022-10-09T09:34:28.798Z,100.00
2022-10-09T09:36:59.195Z,100.00
2022-10-09T09:42:23.955Z,100.00
2022-10-09T09:45:07.044Z,100.00
2022-10-09T09:47:50.119Z,100.00
2022-10-09T09:50:48.653Z,100.00
2022-10-09T09:53:39.757Z,100.00
2022-10-09T09:56:09.764Z,100.00
2022-10-09T09:58:53.236Z,100.00
2022-10-09T10:01:29.059Z,100.00
2022-10-09T10:04:02.443Z,100.00
2022-10-09T10:06:44.747Z,100.00
2022-10-09T10:09:19.580Z,100.00
2022-10-09T10:12:03.533Z,100.00
2022-10-09T10:14:32.526Z,100.00
2022-10-09T10:17:03.598Z,100.00
2022-10-09T10:19:38.798Z,100.00
2022-10-09T10:22:25.940Z,100.00
2022-10-09T10:24:58.991Z,100.00
2022-10-09T10:27:44.285Z,100.00
2022-10-09T10:30:19.805Z,100.00
2022-10-09T10:33:19.241Z,100.00
2022-10-09T10:35:53.333Z,100.00
2022-10-09T10:38:29.789Z,100.00
2022-10-09T10:41:21.116Z,100.00
2022-10-09T10:44:14.053Z,100.00
2022-10-09T10:47:02.019Z,100.00
2022-10-09T10:49:34.035Z,100.00
2022-10-09T10:52:08.601Z,100.00
2022-10-09T10:55:14.251Z,100.00
2022-10-09T10:58:12.356Z,100.00
2022-10-09T11:01:18.033Z,100.00
2022-10-09T11:04:28.671Z,100.00
2022-10-09T11:07:25.374Z,100.00
2022-10-09T11:10:22.718Z,100.00
2022-10-09T11:13:20.501Z,100.00
2022-10-09T11:16:20.484Z,100.00
2022-10-09T11:19:18.014Z,100.00
2022-10-09T11:22:41.900Z,100.00
2022-10-09T11:25:32.828Z,98.00
2022-10-09T11:28:22.930Z,93.77
2022-10-09T11:31:21.592Z,98.53
2022-10-09T11:34:16.460Z,95.43
2022-10-09T11:36:45.765Z,96.96
2022-10-09T11:39:25.231Z,88.83
2022-10-09T11:41:55.521Z,92.40
2022-10-09T11:44:41.946Z,89.21
2022-10-09T11:47:42.368Z,87.59
2022-10-09T11:50:36.917Z,85.21
2022-10-09T11:53:19.540Z,84.06
2022-10-09T11:55:48.266Z,84.67
2022-10-09T11:58:26.005Z,85.92
2022-10-09T12:01:09.920Z,87.99
2022-10-09T12:03:40.211Z,90.05
2022-10-09T12:06:17.906Z,88.52
2022-10-09T12:09:00.584Z,92.96
2022-10-09T12:11:33.575Z,87.85
2022-10-09T12:14:07.123Z,91.10
2022-10-09T12:16:43.816Z,87.71
2022-10-09T12:19:39.131Z,88.71
2022-10-09T12:22:31.919Z,92.13
2022-10-09T12:25:30.829Z,89.94
2022-10-09T12:28:00.738Z,89.30
2022-10-09T12:30:46.637Z,88.30
2022-10-09T12:33:52.930Z,85.53
2022-10-09T12:36:28.987Z,80.92
2022-10-09T12:38:56.363Z,79.06
2022-10-09T12:41:34.330Z,78.40
2022-10-09T12:44:14.833Z,80.10
2022-10-09T12:46:41.957Z,78.01
2022-10-09T12:49:25.153Z,80.44
2022-10-09T12:51:58.263Z,80.85
2022-10-09T12:54:29.999Z,81.28
2022-10-09T12:57:00.684Z,82.22
2022-10-09T12:59:29.625Z,77.62
2022-10-09T13:02:00.436Z,76.73
2022-10-09T13:04:34.083Z,78.52
2022-10-09T13:07:19.821Z,80.31
2022-10-09T13:09:47.892Z,78.27
2022-10-09T13:12:28.857Z,77.80
2022-10-09T13:15:36.922Z,81.15
2022-10-09T13:18:23.225Z,84.40
2022-10-09T13:21:29.048Z,83.00
2022-10-09T13:24:13.477Z,73.89
2022-10-09T13:26:44.109Z,70.54
2022-10-09T13:29:14.929Z,71.28
2022-10-09T13:31:45.024Z,72.21
2022-10-09T13:34:16.547Z,72.26
2022-10-09T13:36:43.600Z,75.35
2022-10-09T13:39:14.955Z,78.55
2022-10-09T13:41:45.371Z,80.85
2022-10-09T13:44:12.338Z,84.17
2022-10-09T13:46:39.311Z,87.19
2022-10-09T13:49:06.239Z,89.55
2022-10-09T13:51:33.277Z,89.50
2022-10-09T13:54:00.324Z,83.46
2022-10-09T13:56:27.889Z,76.46
2022-10-09T13:58:55.027Z,76.54
2022-10-09T14:01:22.024Z,76.71
2022-10-09T14:03:49.071Z,67.32
2022-10-09T14:06:16.137Z,69.49
2022-10-09T14:08:43.276Z,69.77
2022-10-09T14:11:10.281Z,64.54
2022-10-09T14:13:37.520Z,65.07
2022-10-09T14:16:08.655Z,63.86
2022-10-09T14:18:35.664Z,69.41
2022-10-09T14:21:15.591Z,68.47
2022-10-09T14:23:43.856Z,66.13
2022-10-09T14:26:10.848Z,65.20
2022-10-09T14:28:38.257Z,63.65
2022-10-09T14:31:07.789Z,62.68
2022-10-09T14:33:35.036Z,69.94
2022-10-09T14:36:18.585Z,70.21
2022-10-09T14:38:47.993Z,68.16
2022-10-09T14:41:18.055Z,72.73
2022-10-09T14:43:46.901Z,72.08
2022-10-09T14:46:17.853Z,74.94
2022-10-09T14:48:48.919Z,75.19
2022-10-09T14:51:22.389Z,77.43
2022-10-09T14:53:50.584Z,78.07
2022-10-09T14:56:21.306Z,75.96
2022-10-09T14:58:48.755Z,77.13
2022-10-09T15:01:20.569Z,76.18
2022-10-09T15:03:48.353Z,76.54
2022-10-09T15:06:20.157Z,78.56
2022-10-09T15:08:47.190Z,78.46
2022-10-09T15:11:14.167Z,80.01
2022-10-09T15:13:41.181Z,83.05
2022-10-09T15:16:15.221Z,83.60
2022-10-09T15:18:44.273Z,83.50
2022-10-09T15:21:33.963Z,85.86
2022-10-09T15:24:04.637Z,91.02
2022-10-09T15:26:36.409Z,87.93
2022-10-09T15:29:07.444Z,84.49
2022-10-09T15:31:39.841Z,90.37
2022-10-09T15:34:15.472Z,91.82
2022-10-09T15:36:44.460Z,96.21
2022-10-09T15:39:14.860Z,98.12
2022-10-09T15:41:43.735Z,100.00
2022-10-09T15:44:20.503Z,100.00
2022-10-09T15:46:49.727Z,100.00
2022-10-09T15:49:17.162Z,100.00
2022-10-09T15:51:44.508Z,100.00
2022-10-09T15:54:14.453Z,100.00
2022-10-09T15:56:42.363Z,100.00
2022-10-09T15:59:13.668Z,100.00
2022-10-09T16:01:40.689Z,100.00
2022-10-09T16:04:09.013Z,100.00
2022-10-09T16:06:36.013Z,100.00
2022-10-09T16:09:04.522Z,100.00
2022-10-09T16:11:32.057Z,100.00
2022-10-09T16:13:59.614Z,100.00
2022-10-09T16:16:28.331Z,100.00
2022-10-09T16:18:57.077Z,100.00
2022-10-09T16:21:28.790Z,100.00
2022-10-09T16:23:59.569Z,100.00
2022-10-09T16:26:29.808Z,100.00
2022-10-09T16:29:00.707Z,100.00
2022-10-09T16:31:34.957Z,100.00
2022-10-09T16:34:06.114Z,100.00
2022-10-09T16:36:34.520Z,100.00
2022-10-09T16:39:01.835Z,100.00
2022-10-09T16:41:28.898Z,100.00
2022-10-09T16:43:58.039Z,100.00
2022-10-09T16:49:24.140Z,100.00
2022-10-09T16:51:52.186Z,100.00
2022-10-09T16:54:19.284Z,100.00
2022-10-09T16:56:46.376Z,100.00
2022-10-09T16:59:14.151Z,100.00
2022-10-09T17:01:45.587Z,100.00
2022-10-09T17:04:14.540Z,100.00
2022-10-09T17:06:45.671Z,100.00
2022-10-09T17:09:14.447Z,100.00
2022-10-09T17:11:43.535Z,100.00
2022-10-09T17:14:12.090Z,100.00
2022-10-09T17:16:43.017Z,100.00
2022-10-09T17:19:10.160Z,100.00
2022-10-09T17:21:37.637Z,100.00
2022-10-09T17:24:07.587Z,100.00
2022-10-09T17:26:35.827Z,100.00
2022-10-09T17:29:04.013Z,100.00
2022-10-09T17:31:31.482Z,100.00
2022-10-09T17:34:04.384Z,100.00
2022-10-09T17:36:37.428Z,100.00
2022-10-09T17:39:09.539Z,100.00
2022-10-09T17:41:36.829Z,100.00
2022-10-09T17:44:04.911Z,100.00
2022-10-09T17:46:32.345Z,100.00
2022-10-09T17:49:00.307Z,100.00
2022-10-09T17:51:31.903Z,100.00
2022-10-09T17:54:10.952Z,100.00
2022-10-09T17:56:40.637Z,100.00
2022-10-09T17:59:09.122Z,100.00
2022-10-09T18:01:39.057Z,100.00
2022-10-09T18:04:06.095Z,100.00
2022-10-09T18:06:35.352Z,100.00
2022-10-09T18:09:04.476Z,100.00
2022-10-09T18:11:31.675Z,100.00
2022-10-09T18:13:58.769Z,100.00
2022-10-09T18:16:35.678Z,100.00
2022-10-09T18:19:21.638Z,100.00
2022-10-09T18:21:50.487Z,100.00
2022-10-09T18:24:18.476Z,100.00
2022-10-09T18:26:45.365Z,100.00
2022-10-09T18:29:12.639Z,100.00
2022-10-09T18:31:39.965Z,100.00
2022-10-09T18:34:07.135Z,100.00
2022-10-09T18:36:35.011Z,100.00
2022-10-09T18:39:09.908Z,100.00
2022-10-09T18:41:37.363Z,100.00
2022-10-09T18:44:07.561Z,100.00
2022-10-09T18:46:42.793Z,100.00
2022-10-09T18:49:17.039Z,100.00
2022-10-09T18:51:47.663Z,100.00
2022-10-09T18:54:18.718Z,100.00
2022-10-09T18:56:46.621Z,100.00
2022-10-09T18:59:20.491Z,100.00
2022-10-09T19:01:47.429Z,100.00
2022-10-09T19:04:14.778Z,100.00
2022-10-09T19:06:41.778Z,100.00
2022-10-09T19:09:08.745Z,100.00
2022-10-09T19:11:36.132Z,100.00
2022-10-09T19:14:03.258Z,100.00
2022-10-09T19:16:34.626Z,100.00
2022-10-09T19:19:02.190Z,100.00
2022-10-09T19:21:29.307Z,100.00
2022-10-09T19:23:56.375Z,100.00
2022-10-09T19:26:23.830Z,100.00
2022-10-09T19:28:50.893Z,100.00
2022-10-09T19:31:18.985Z,100.00
2022-10-09T19:33:46.228Z,100.00
2022-10-09T19:36:14.711Z,100.00
2022-10-09T19:38:43.241Z,100.00
2022-10-09T19:41:15.589Z,100.00
2022-10-09T19:43:43.211Z,100.00
2022-10-09T19:46:20.805Z,100.00
2022-10-09T19:48:47.790Z,100.00
2022-10-09T19:51:21.145Z,100.00
2022-10-09T19:53:48.899Z,100.00
2022-10-09T19:56:22.862Z,100.00
2022-10-09T19:58:50.816Z,100.00
2022-10-09T20:01:24.267Z,100.00
2022-10-09T20:04:07.859Z,100.00
2022-10-09T20:06:42.341Z,100.00
2022-10-09T20:09:12.130Z,100.00
2022-10-09T20:11:39.375Z,100.00
2022-10-09T20:14:07.969Z,100.00
2022-10-09T20:16:35.046Z,100.00
2022-10-09T20:19:04.046Z,100.00
2022-10-09T20:21:34.170Z,100.00
2022-10-09T20:24:01.858Z,100.00
2022-10-09T20:26:31.417Z,100.00
2022-10-09T20:28:58.605Z,100.00
2022-10-09T20:31:28.353Z,100.00
2022-10-09T20:33:55.844Z,100.00
2022-10-09T20:36:30.044Z,100.00
2022-10-09T20:39:07.032Z,100.00
2022-10-09T20:41:35.265Z,100.00
2022-10-09T20:44:04.600Z,100.00
2022-10-09T20:46:36.461Z,100.00
2022-10-09T20:49:08.684Z,100.00
2022-10-09T20:51:38.448Z,100.00
2022-10-09T20:54:08.680Z,100.00
2022-10-09T20:56:36.695Z,100.00
2022-10-09T20:59:04.202Z,100.00
2022-10-09T21:01:31.549Z,100.00
2022-10-09T21:03:59.489Z,100.00
2022-10-09T21:06:27.814Z,100.00
2022-10-09T21:08:55.512Z,100.00
2022-10-09T21:11:24.240Z,100.00
2022-10-09T21:13:52.097Z,100.00
2022-10-09T21:16:24.304Z,100.00
2022-10-09T21:19:02.489Z,100.00
2022-10-09T21:21:31.878Z,100.00
2022-10-09T21:24:01.731Z,100.00
2022-10-09T21:26:35.311Z,100.00
2022-10-09T21:29:06.903Z,100.00
2022-10-09T21:31:34.534Z,100.00
2022-10-09T21:34:02.437Z,100.00
2022-10-09T21:37:19.439Z,100.00
2022-10-09T21:39:36.319Z,100.00
2022-10-09T21:42:03.350Z,100.00
2022-10-09T21:44:30.534Z,100.00
2022-10-09T21:46:57.456Z,100.00
2022-10-09T21:49:28.008Z,100.00
2022-10-09T21:51:56.308Z,100.00
2022-10-09T21:54:24.231Z,100.00
2022-10-09T21:56:51.201Z,100.00
2022-10-09T21:59:18.277Z,100.00
2022-10-09T22:01:45.260Z,100.00
2022-10-09T22:04:12.239Z,100.00
2022-10-09T22:06:41.151Z,100.00
2022-10-09T22:09:08.150Z,100.00
2022-10-09T22:11:35.081Z,100.00
2022-10-09T22:14:02.011Z,100.00
2022-10-09T22:16:28.947Z,100.00
2022-10-09T22:18:56.361Z,100.00
2022-10-09T22:21:23.736Z,100.00
2022-10-09T22:23:51.253Z,100.00
2022-10-09T22:26:22.837Z,100.00
2022-10-09T22:28:50.456Z,100.00
2022-10-09T22:31:27.338Z,100.00
2022-10-09T22:34:00.220Z,100.00
2022-10-09T22:36:33.241Z,100.00
2022-10-09T22:39:06.236Z,100.00
2022-10-09T22:41:36.145Z,100.00
2022-10-09T22:44:08.808Z,100.00
2022-10-09T22:46:44.156Z,100.00
2022-10-09T22:49:16.628Z,100.00
2022-10-09T22:51:45.487Z,100.00
2022-10-09T22:54:13.897Z,100.00
2022-10-09T22:56:45.305Z,100.00
2022-10-09T22:59:17.958Z,100.00
2022-10-09T23:01:53.495Z,100.00
2022-10-09T23:04:23.591Z,100.00
2022-10-09T23:06:55.471Z,100.00
2022-10-09T23:09:28.481Z,100.00
2022-10-09T23:11:57.367Z,100.00
2022-10-09T23:14:26.184Z,100.00
2022-10-09T23:16:53.354Z,100.00
2022-10-09T23:19:20.347Z,100.00
2022-10-09T23:21:48.154Z,100.00
2022-10-09T23:24:17.850Z,100.00
2022-10-09T23:26:52.085Z,100.00
2022-10-09T23:29:21.091Z,100.00
2022-10-09T23:31:52.563Z,100.00
2022-10-09T23:34:20.172Z,100.00
2022-10-09T23:36:47.182Z,100.00
2022-10-09T23:39:14.652Z,100.00
2022-10-09T23:41:41.771Z,100.00
2022-10-09T23:44:08.911Z,100.00
2022-10-09T23:46:37.666Z,100.00
2022-10-09T23:49:05.897Z,100.00
2022-10-09T23:51:33.062Z,100.00
2022-10-09T23:54:00.610Z,100.00
2022-10-09T23:56:35.522Z,100.00
2022-10-09T23:59:06.627Z,100.00
